sensor_id;sensor_type;location;lat;lon;timestamp;P1;durP1;ratioP1;P2;durP2;ratioP2
32200;SDS011;18701;45.588;5.288;2022-12-31T00:02:02;15.85;;;5.57;;
32200;SDS011;18701;45.588;5.288;2022-12-31T00:04:28;14.50;;;5.18;;
32200;SDS011;18701;45.588;5.288;2022-12-31T00:06:54;11.98;;;4.88;;
32200;SDS011;18701;45.588;5.288;2022-12-31T00:09:19;10.45;;;5.05;;
32200;SDS011;18701;45.588;5.288;2022-12-31T00:11:45;9.82;;;4.68;;
32200;SDS011;18701;45.588;5.288;2022-12-31T00:14:10;15.77;;;6.60;;
32200;SDS011;18701;45.588;5.288;2022-12-31T00:16:37;16.95;;;4.57;;
32200;SDS011;18701;45.588;5.288;2022-12-31T00:19:05;12.63;;;4.55;;
32200;SDS011;18701;45.588;5.288;2022-12-31T00:21:33;10.55;;;4.65;;
32200;SDS011;18701;45.588;5.288;2022-12-31T00:24:00;8.93;;;4.55;;
32200;SDS011;18701;45.588;5.288;2022-12-31T00:26:27;9.35;;;4.85;;
32200;SDS011;18701;45.588;5.288;2022-12-31T00:28:54;12.05;;;4.82;;
32200;SDS011;18701;45.588;5.288;2022-12-31T00:31:26;16.77;;;5.43;;
32200;SDS011;18701;45.588;5.288;2022-12-31T00:33:56;14.10;;;4.38;;
32200;SDS011;18701;45.588;5.288;2022-12-31T00:36:26;9.68;;;4.63;;
32200;SDS011;18701;45.588;5.288;2022-12-31T00:39:01;14.85;;;4.38;;
32200;SDS011;18701;45.588;5.288;2022-12-31T00:41:28;13.73;;;4.57;;
32200;SDS011;18701;45.588;5.288;2022-12-31T00:43:55;11.48;;;4.55;;
32200;SDS011;18701;45.588;5.288;2022-12-31T00:46:21;11.18;;;5.15;;
32200;SDS011;18701;45.588;5.288;2022-12-31T00:48:47;9.95;;;4.05;;
32200;SDS011;18701;45.588;5.288;2022-12-31T00:51:14;18.42;;;4.72;;
32200;SDS011;18701;45.588;5.288;2022-12-31T00:53:42;9.70;;;4.90;;
32200;SDS011;18701;45.588;5.288;2022-12-31T00:56:11;12.43;;;3.85;;
32200;SDS011;18701;45.588;5.288;2022-12-31T00:58:40;16.40;;;4.38;;
32200;SDS011;18701;45.588;5.288;2022-12-31T01:03:43;13.07;;;4.63;;
32200;SDS011;18701;45.588;5.288;2022-12-31T01:06:10;12.73;;;4.38;;
32200;SDS011;18701;45.588;5.288;2022-12-31T01:08:36;9.32;;;3.90;;
32200;SDS011;18701;45.588;5.288;2022-12-31T01:11:02;9.25;;;3.92;;
32200;SDS011;18701;45.588;5.288;2022-12-31T01:16:14;10.32;;;4.30;;
32200;SDS011;18701;45.588;5.288;2022-12-31T01:18:43;10.02;;;3.35;;
32200;SDS011;18701;45.588;5.288;2022-12-31T01:21:10;11.43;;;4.05;;
32200;SDS011;18701;45.588;5.288;2022-12-31T01:23:36;14.15;;;3.70;;
32200;SDS011;18701;45.588;5.288;2022-12-31T01:26:04;13.07;;;3.53;;
32200;SDS011;18701;45.588;5.288;2022-12-31T01:28:31;23.70;;;3.63;;
32200;SDS011;18701;45.588;5.288;2022-12-31T01:30:58;14.55;;;3.95;;
32200;SDS011;18701;45.588;5.288;2022-12-31T01:33:26;13.38;;;4.38;;
32200;SDS011;18701;45.588;5.288;2022-12-31T01:35:52;12.65;;;3.90;;
32200;SDS011;18701;45.588;5.288;2022-12-31T01:38:17;13.20;;;3.65;;
32200;SDS011;18701;45.588;5.288;2022-12-31T01:40:43;14.13;;;4.07;;
32200;SDS011;18701;45.588;5.288;2022-12-31T01:43:13;10.95;;;3.90;;
32200;SDS011;18701;45.588;5.288;2022-12-31T01:45:42;7.05;;;3.95;;
32200;SDS011;18701;45.588;5.288;2022-12-31T01:48:14;11.60;;;3.90;;
32200;SDS011;18701;45.588;5.288;2022-12-31T01:50:45;9.93;;;3.83;;
32200;SDS011;18701;45.588;5.288;2022-12-31T01:53:11;10.20;;;4.13;;
32200;SDS011;18701;45.588;5.288;2022-12-31T01:55:47;14.30;;;3.85;;
32200;SDS011;18701;45.588;5.288;2022-12-31T01:58:20;9.93;;;3.95;;
32200;SDS011;18701;45.588;5.288;2022-12-31T02:01:00;8.27;;;3.75;;
32200;SDS011;18701;45.588;5.288;2022-12-31T02:03:27;12.82;;;3.83;;
32200;SDS011;18701;45.588;5.288;2022-12-31T02:05:55;11.82;;;3.53;;
32200;SDS011;18701;45.588;5.288;2022-12-31T02:08:27;12.35;;;3.85;;
32200;SDS011;18701;45.588;5.288;2022-12-31T02:10:53;10.15;;;3.90;;
32200;SDS011;18701;45.588;5.288;2022-12-31T02:13:18;11.02;;;3.92;;
32200;SDS011;18701;45.588;5.288;2022-12-31T02:15:56;9.18;;;4.00;;
32200;SDS011;18701;45.588;5.288;2022-12-31T02:27:07;10.70;;;3.13;;
32200;SDS011;18701;45.588;5.288;2022-12-31T02:32:30;8.70;;;3.45;;
32200;SDS011;18701;45.588;5.288;2022-12-31T02:35:08;7.03;;;3.35;;
32200;SDS011;18701;45.588;5.288;2022-12-31T02:37:36;5.55;;;3.08;;
32200;SDS011;18701;45.588;5.288;2022-12-31T02:40:05;13.15;;;2.72;;
32200;SDS011;18701;45.588;5.288;2022-12-31T02:42:33;11.57;;;2.83;;
32200;SDS011;18701;45.588;5.288;2022-12-31T02:44:59;10.95;;;3.35;;
32200;SDS011;18701;45.588;5.288;2022-12-31T02:55:34;8.13;;;3.28;;
32200;SDS011;18701;45.588;5.288;2022-12-31T02:58:12;9.88;;;2.55;;
32200;SDS011;18701;45.588;5.288;2022-12-31T03:01:06;8.60;;;3.38;;
32200;SDS011;18701;45.588;5.288;2022-12-31T03:03:50;8.15;;;3.30;;
32200;SDS011;18701;45.588;5.288;2022-12-31T03:06:36;9.63;;;2.47;;
32200;SDS011;18701;45.588;5.288;2022-12-31T03:09:02;11.18;;;3.13;;
32200;SDS011;18701;45.588;5.288;2022-12-31T03:11:36;8.57;;;3.17;;
32200;SDS011;18701;45.588;5.288;2022-12-31T03:14:21;8.07;;;2.60;;
32200;SDS011;18701;45.588;5.288;2022-12-31T03:16:46;17.45;;;3.22;;
32200;SDS011;18701;45.588;5.288;2022-12-31T03:19:13;6.35;;;2.80;;
32200;SDS011;18701;45.588;5.288;2022-12-31T03:21:57;7.93;;;2.92;;
32200;SDS011;18701;45.588;5.288;2022-12-31T03:24:41;10.43;;;3.10;;
32200;SDS011;18701;45.588;5.288;2022-12-31T03:27:25;9.68;;;3.47;;
32200;SDS011;18701;45.588;5.288;2022-12-31T03:29:51;9.13;;;3.90;;
32200;SDS011;18701;45.588;5.288;2022-12-31T03:32:16;10.98;;;3.83;;
32200;SDS011;18701;45.588;5.288;2022-12-31T03:34:42;14.18;;;4.00;;
32200;SDS011;18701;45.588;5.288;2022-12-31T03:37:07;11.52;;;3.45;;
32200;SDS011;18701;45.588;5.288;2022-12-31T03:39:33;10.10;;;2.88;;
32200;SDS011;18701;45.588;5.288;2022-12-31T03:41:58;10.60;;;3.15;;
32200;SDS011;18701;45.588;5.288;2022-12-31T03:44:24;10.50;;;3.47;;
32200;SDS011;18701;45.588;5.288;2022-12-31T03:46:50;7.43;;;3.22;;
32200;SDS011;18701;45.588;5.288;2022-12-31T03:49:15;8.40;;;3.03;;
32200;SDS011;18701;45.588;5.288;2022-12-31T03:51:41;10.63;;;2.95;;
32200;SDS011;18701;45.588;5.288;2022-12-31T03:54:07;10.23;;;3.00;;
32200;SDS011;18701;45.588;5.288;2022-12-31T03:56:32;9.70;;;3.10;;
32200;SDS011;18701;45.588;5.288;2022-12-31T03:58:58;8.70;;;3.10;;
32200;SDS011;18701;45.588;5.288;2022-12-31T04:01:23;11.05;;;2.88;;
32200;SDS011;18701;45.588;5.288;2022-12-31T04:03:50;10.63;;;3.20;;
32200;SDS011;18701;45.588;5.288;2022-12-31T04:06:15;8.68;;;2.75;;
32200;SDS011;18701;45.588;5.288;2022-12-31T04:08:41;9.02;;;3.33;;
32200;SDS011;18701;45.588;5.288;2022-12-31T04:11:06;12.73;;;3.20;;
32200;SDS011;18701;45.588;5.288;2022-12-31T04:13:32;9.35;;;3.00;;
32200;SDS011;18701;45.588;5.288;2022-12-31T04:15:58;7.78;;;2.78;;
32200;SDS011;18701;45.588;5.288;2022-12-31T04:18:23;9.50;;;3.03;;
32200;SDS011;18701;45.588;5.288;2022-12-31T04:20:49;9.95;;;3.45;;
32200;SDS011;18701;45.588;5.288;2022-12-31T04:23:14;7.35;;;3.22;;
32200;SDS011;18701;45.588;5.288;2022-12-31T04:25:40;7.88;;;3.20;;
32200;SDS011;18701;45.588;5.288;2022-12-31T04:28:06;9.07;;;2.78;;
32200;SDS011;18701;45.588;5.288;2022-12-31T04:30:32;12.38;;;3.30;;
32200;SDS011;18701;45.588;5.288;2022-12-31T04:32:57;7.55;;;2.88;;
32200;SDS011;18701;45.588;5.288;2022-12-31T04:35:23;11.77;;;3.08;;
32200;SDS011;18701;45.588;5.288;2022-12-31T04:37:48;7.18;;;2.70;;
32200;SDS011;18701;45.588;5.288;2022-12-31T04:40:14;8.20;;;3.05;;
32200;SDS011;18701;45.588;5.288;2022-12-31T04:42:40;10.77;;;2.88;;
32200;SDS011;18701;45.588;5.288;2022-12-31T04:45:05;13.80;;;2.90;;
32200;SDS011;18701;45.588;5.288;2022-12-31T04:47:31;10.30;;;3.65;;
32200;SDS011;18701;45.588;5.288;2022-12-31T04:49:57;7.97;;;2.60;;
32200;SDS011;18701;45.588;5.288;2022-12-31T04:52:23;12.07;;;3.15;;
32200;SDS011;18701;45.588;5.288;2022-12-31T04:54:49;11.82;;;2.63;;
32200;SDS011;18701;45.588;5.288;2022-12-31T04:57:14;8.30;;;2.65;;
32200;SDS011;18701;45.588;5.288;2022-12-31T04:59:40;8.32;;;2.92;;
32200;SDS011;18701;45.588;5.288;2022-12-31T05:02:05;13.13;;;2.72;;
32200;SDS011;18701;45.588;5.288;2022-12-31T05:04:31;10.60;;;3.08;;
32200;SDS011;18701;45.588;5.288;2022-12-31T05:06:57;10.13;;;2.58;;
32200;SDS011;18701;45.588;5.288;2022-12-31T05:09:22;6.72;;;2.65;;
32200;SDS011;18701;45.588;5.288;2022-12-31T05:11:51;8.15;;;2.30;;
32200;SDS011;18701;45.588;5.288;2022-12-31T05:14:17;9.57;;;2.20;;
32200;SDS011;18701;45.588;5.288;2022-12-31T05:16:42;8.57;;;2.67;;
32200;SDS011;18701;45.588;5.288;2022-12-31T05:19:08;9.27;;;2.20;;
32200;SDS011;18701;45.588;5.288;2022-12-31T05:21:34;6.40;;;2.03;;
32200;SDS011;18701;45.588;5.288;2022-12-31T05:24:00;4.85;;;2.17;;
32200;SDS011;18701;45.588;5.288;2022-12-31T05:26:25;7.82;;;2.15;;
32200;SDS011;18701;45.588;5.288;2022-12-31T05:28:51;4.88;;;2.20;;
32200;SDS011;18701;45.588;5.288;2022-12-31T05:31:16;12.13;;;2.28;;
32200;SDS011;18701;45.588;5.288;2022-12-31T05:33:42;5.50;;;2.00;;
32200;SDS011;18701;45.588;5.288;2022-12-31T05:36:08;4.75;;;1.48;;
32200;SDS011;18701;45.588;5.288;2022-12-31T05:38:33;9.27;;;2.40;;
32200;SDS011;18701;45.588;5.288;2022-12-31T05:41:01;6.05;;;1.73;;
32200;SDS011;18701;45.588;5.288;2022-12-31T05:43:28;5.25;;;1.80;;
32200;SDS011;18701;45.588;5.288;2022-12-31T05:45:54;12.57;;;2.83;;
32200;SDS011;18701;45.588;5.288;2022-12-31T05:48:20;14.55;;;2.25;;
32200;SDS011;18701;45.588;5.288;2022-12-31T05:50:47;6.95;;;2.58;;
32200;SDS011;18701;45.588;5.288;2022-12-31T05:53:13;4.70;;;1.75;;
32200;SDS011;18701;45.588;5.288;2022-12-31T05:55:39;9.70;;;2.13;;
32200;SDS011;18701;45.588;5.288;2022-12-31T05:58:04;5.07;;;1.88;;
32200;SDS011;18701;45.588;5.288;2022-12-31T06:00:30;8.43;;;2.25;;
32200;SDS011;18701;45.588;5.288;2022-12-31T06:02:55;7.63;;;1.85;;
32200;SDS011;18701;45.588;5.288;2022-12-31T06:05:21;13.20;;;2.30;;
32200;SDS011;18701;45.588;5.288;2022-12-31T06:07:47;5.93;;;1.52;;
32200;SDS011;18701;45.588;5.288;2022-12-31T06:10:12;4.25;;;1.65;;
32200;SDS011;18701;45.588;5.288;2022-12-31T06:12:38;10.30;;;1.73;;
32200;SDS011;18701;45.588;5.288;2022-12-31T06:15:04;8.15;;;1.35;;
32200;SDS011;18701;45.588;5.288;2022-12-31T06:17:30;6.25;;;1.20;;
32200;SDS011;18701;45.588;5.288;2022-12-31T06:19:56;7.53;;;1.85;;
32200;SDS011;18701;45.588;5.288;2022-12-31T06:22:22;4.28;;;1.58;;
32200;SDS011;18701;45.588;5.288;2022-12-31T06:24:48;7.85;;;0.95;;
32200;SDS011;18701;45.588;5.288;2022-12-31T06:27:13;6.68;;;1.73;;
32200;SDS011;18701;45.588;5.288;2022-12-31T06:29:39;3.38;;;1.05;;
32200;SDS011;18701;45.588;5.288;2022-12-31T06:32:05;4.80;;;1.60;;
32200;SDS011;18701;45.588;5.288;2022-12-31T06:34:31;4.93;;;1.70;;
32200;SDS011;18701;45.588;5.288;2022-12-31T06:36:56;5.40;;;1.30;;
32200;SDS011;18701;45.588;5.288;2022-12-31T06:39:22;8.63;;;1.40;;
32200;SDS011;18701;45.588;5.288;2022-12-31T06:41:48;7.68;;;1.75;;
32200;SDS011;18701;45.588;5.288;2022-12-31T06:44:14;4.57;;;1.58;;
32200;SDS011;18701;45.588;5.288;2022-12-31T06:46:39;9.40;;;1.88;;
32200;SDS011;18701;45.588;5.288;2022-12-31T06:49:05;5.38;;;1.63;;
32200;SDS011;18701;45.588;5.288;2022-12-31T06:51:31;3.33;;;1.23;;
32200;SDS011;18701;45.588;5.288;2022-12-31T06:53:56;4.93;;;1.77;;
32200;SDS011;18701;45.588;5.288;2022-12-31T06:56:23;5.50;;;1.83;;
32200;SDS011;18701;45.588;5.288;2022-12-31T06:58:52;7.80;;;2.22;;
32200;SDS011;18701;45.588;5.288;2022-12-31T07:06:53;7.93;;;1.55;;
32200;SDS011;18701;45.588;5.288;2022-12-31T07:14:53;4.03;;;1.48;;
32200;SDS011;18701;45.588;5.288;2022-12-31T07:20:22;5.57;;;1.60;;
32200;SDS011;18701;45.588;5.288;2022-12-31T07:22:48;10.30;;;2.00;;
32200;SDS011;18701;45.588;5.288;2022-12-31T07:25:15;6.35;;;2.05;;
32200;SDS011;18701;45.588;5.288;2022-12-31T07:30:12;6.38;;;1.50;;
32200;SDS011;18701;45.588;5.288;2022-12-31T07:35:31;3.83;;;1.48;;
32200;SDS011;18701;45.588;5.288;2022-12-31T07:43:58;3.70;;;1.45;;
32200;SDS011;18701;45.588;5.288;2022-12-31T07:46:27;5.63;;;1.70;;
32200;SDS011;18701;45.588;5.288;2022-12-31T07:49:05;7.65;;;1.95;;
32200;SDS011;18701;45.588;5.288;2022-12-31T07:51:38;4.03;;;1.50;;
32200;SDS011;18701;45.588;5.288;2022-12-31T07:54:04;4.68;;;1.55;;
32200;SDS011;18701;45.588;5.288;2022-12-31T07:56:30;5.68;;;1.60;;
32200;SDS011;18701;45.588;5.288;2022-12-31T08:10:01;7.38;;;1.98;;
32200;SDS011;18701;45.588;5.288;2022-12-31T08:12:37;5.93;;;1.83;;
32200;SDS011;18701;45.588;5.288;2022-12-31T08:15:10;8.38;;;1.83;;
32200;SDS011;18701;45.588;5.288;2022-12-31T08:17:38;4.18;;;1.35;;
32200;SDS011;18701;45.588;5.288;2022-12-31T08:20:04;7.68;;;1.48;;
32200;SDS011;18701;45.588;5.288;2022-12-31T08:22:37;7.53;;;1.48;;
32200;SDS011;18701;45.588;5.288;2022-12-31T08:25:36;5.53;;;1.45;;
32200;SDS011;18701;45.588;5.288;2022-12-31T08:37:05;5.97;;;1.90;;
32200;SDS011;18701;45.588;5.288;2022-12-31T08:39:43;4.13;;;1.52;;
32200;SDS011;18701;45.588;5.288;2022-12-31T08:50:15;6.22;;;1.23;;
32200;SDS011;18701;45.588;5.288;2022-12-31T08:52:43;5.05;;;1.70;;
32200;SDS011;18701;45.588;5.288;2022-12-31T08:55:13;6.45;;;1.83;;
32200;SDS011;18701;45.588;5.288;2022-12-31T09:00:35;6.80;;;1.60;;
32200;SDS011;18701;45.588;5.288;2022-12-31T09:11:53;3.97;;;1.38;;
32200;SDS011;18701;45.588;5.288;2022-12-31T09:14:43;4.38;;;0.93;;
32200;SDS011;18701;45.588;5.288;2022-12-31T09:20:13;1.35;;;0.60;;
32200;SDS011;18701;45.588;5.288;2022-12-31T09:22:41;8.05;;;1.40;;
32200;SDS011;18701;45.588;5.288;2022-12-31T09:25:11;4.85;;;1.00;;
32200;SDS011;18701;45.588;5.288;2022-12-31T09:27:39;5.30;;;1.63;;
32200;SDS011;18701;45.588;5.288;2022-12-31T09:30:11;10.73;;;1.20;;
32200;SDS011;18701;45.588;5.288;2022-12-31T09:32:49;3.90;;;1.27;;
32200;SDS011;18701;45.588;5.288;2022-12-31T09:54:35;5.25;;;1.35;;
32200;SDS011;18701;45.588;5.288;2022-12-31T09:57:34;5.30;;;1.17;;
32200;SDS011;18701;45.588;5.288;2022-12-31T10:11:05;4.25;;;0.60;;
32200;SDS011;18701;45.588;5.288;2022-12-31T10:14:07;3.80;;;1.05;;
32200;SDS011;18701;45.588;5.288;2022-12-31T10:16:53;2.13;;;0.82;;
32200;SDS011;18701;45.588;5.288;2022-12-31T10:30:36;3.20;;;0.60;;
32200;SDS011;18701;45.588;5.288;2022-12-31T10:38:27;3.78;;;0.75;;
32200;SDS011;18701;45.588;5.288;2022-12-31T10:54:59;5.28;;;1.08;;
32200;SDS011;18701;45.588;5.288;2022-12-31T11:15:00;1.92;;;0.40;;
32200;SDS011;18701;45.588;5.288;2022-12-31T11:20:26;3.10;;;0.63;;
32200;SDS011;18701;45.588;5.288;2022-12-31T11:28:39;1.67;;;0.70;;
32200;SDS011;18701;45.588;5.288;2022-12-31T11:36:55;2.58;;;0.70;;
32200;SDS011;18701;45.588;5.288;2022-12-31T11:52:55;1.25;;;0.50;;
32200;SDS011;18701;45.588;5.288;2022-12-31T11:58:30;2.05;;;0.45;;
32200;SDS011;18701;45.588;5.288;2022-12-31T12:03:27;4.22;;;0.52;;
32200;SDS011;18701;45.588;5.288;2022-12-31T12:05:54;1.55;;;0.32;;
32200;SDS011;18701;45.588;5.288;2022-12-31T12:08:21;3.00;;;0.60;;
32200;SDS011;18701;45.588;5.288;2022-12-31T12:10:50;1.83;;;0.40;;
32200;SDS011;18701;45.588;5.288;2022-12-31T12:13:22;2.97;;;0.50;;
32200;SDS011;18701;45.588;5.288;2022-12-31T12:15:50;5.60;;;0.50;;
32200;SDS011;18701;45.588;5.288;2022-12-31T12:21:11;4.45;;;1.10;;
32200;SDS011;18701;45.588;5.288;2022-12-31T12:23:55;3.38;;;0.80;;
32200;SDS011;18701;45.588;5.288;2022-12-31T12:26:24;2.80;;;0.77;;
32200;SDS011;18701;45.588;5.288;2022-12-31T12:29:11;1.73;;;0.30;;
32200;SDS011;18701;45.588;5.288;2022-12-31T12:31:40;0.98;;;0.43;;
32200;SDS011;18701;45.588;5.288;2022-12-31T12:34:19;4.00;;;0.77;;
32200;SDS011;18701;45.588;5.288;2022-12-31T12:36:47;3.17;;;0.40;;
32200;SDS011;18701;45.588;5.288;2022-12-31T12:39:23;5.45;;;0.50;;
32200;SDS011;18701;45.588;5.288;2022-12-31T12:44:29;4.63;;;0.65;;
32200;SDS011;18701;45.588;5.288;2022-12-31T12:46:56;1.90;;;0.40;;
32200;SDS011;18701;45.588;5.288;2022-12-31T12:49:24;1.55;;;0.50;;
32200;SDS011;18701;45.588;5.288;2022-12-31T12:54:36;6.53;;;0.70;;
32200;SDS011;18701;45.588;5.288;2022-12-31T13:16:08;6.10;;;1.08;;
32200;SDS011;18701;45.588;5.288;2022-12-31T13:18:47;7.07;;;0.52;;
32200;SDS011;18701;45.588;5.288;2022-12-31T13:21:26;5.07;;;1.00;;
32200;SDS011;18701;45.588;5.288;2022-12-31T13:26:42;5.85;;;0.82;;
32200;SDS011;18701;45.588;5.288;2022-12-31T13:29:16;1.70;;;0.50;;
32200;SDS011;18701;45.588;5.288;2022-12-31T13:31:45;0.95;;;0.47;;
32200;SDS011;18701;45.588;5.288;2022-12-31T13:34:35;4.88;;;0.50;;
32200;SDS011;18701;45.588;5.288;2022-12-31T13:37:05;2.83;;;0.63;;
32200;SDS011;18701;45.588;5.288;2022-12-31T13:40:02;3.83;;;0.50;;
32200;SDS011;18701;45.588;5.288;2022-12-31T13:42:44;6.70;;;0.60;;
32200;SDS011;18701;45.588;5.288;2022-12-31T13:45:20;4.53;;;0.85;;
32200;SDS011;18701;45.588;5.288;2022-12-31T13:47:55;6.53;;;1.20;;
32200;SDS011;18701;45.588;5.288;2022-12-31T13:50:36;5.70;;;1.02;;
32200;SDS011;18701;45.588;5.288;2022-12-31T13:53:13;7.65;;;1.13;;
32200;SDS011;18701;45.588;5.288;2022-12-31T13:55:45;4.07;;;0.70;;
32200;SDS011;18701;45.588;5.288;2022-12-31T14:01:42;2.45;;;1.00;;
32200;SDS011;18701;45.588;5.288;2022-12-31T14:04:12;9.00;;;1.13;;
32200;SDS011;18701;45.588;5.288;2022-12-31T14:06:49;3.50;;;0.90;;
32200;SDS011;18701;45.588;5.288;2022-12-31T14:09:21;3.88;;;0.63;;
32200;SDS011;18701;45.588;5.288;2022-12-31T14:12:09;4.50;;;0.88;;
32200;SDS011;18701;45.588;5.288;2022-12-31T14:25:31;3.40;;;0.90;;
32200;SDS011;18701;45.588;5.288;2022-12-31T14:27:58;7.18;;;1.30;;
32200;SDS011;18701;45.588;5.288;2022-12-31T14:30:28;9.10;;;1.35;;
32200;SDS011;18701;45.588;5.288;2022-12-31T14:38:46;6.63;;;1.40;;
32200;SDS011;18701;45.588;5.288;2022-12-31T14:51:44;10.35;;;1.40;;
32200;SDS011;18701;45.588;5.288;2022-12-31T14:54:34;3.35;;;0.82;;
32200;SDS011;18701;45.588;5.288;2022-12-31T14:57:37;4.65;;;1.20;;
32200;SDS011;18701;45.588;5.288;2022-12-31T15:19:22;6.80;;;1.35;;
32200;SDS011;18701;45.588;5.288;2022-12-31T15:22:10;4.75;;;1.23;;
32200;SDS011;18701;45.588;5.288;2022-12-31T15:24:47;6.80;;;2.00;;
32200;SDS011;18701;45.588;5.288;2022-12-31T15:29:54;4.57;;;1.27;;
32200;SDS011;18701;45.588;5.288;2022-12-31T15:32:38;4.78;;;1.42;;
32200;SDS011;18701;45.588;5.288;2022-12-31T15:37:56;5.60;;;1.50;;
32200;SDS011;18701;45.588;5.288;2022-12-31T15:40:23;9.05;;;1.50;;
32200;SDS011;18701;45.588;5.288;2022-12-31T15:43:02;4.15;;;1.52;;
32200;SDS011;18701;45.588;5.288;2022-12-31T15:45:36;4.70;;;1.20;;
32200;SDS011;18701;45.588;5.288;2022-12-31T15:48:17;5.65;;;1.67;;
32200;SDS011;18701;45.588;5.288;2022-12-31T15:50:46;9.68;;;1.88;;
32200;SDS011;18701;45.588;5.288;2022-12-31T15:55:56;6.53;;;1.60;;
32200;SDS011;18701;45.588;5.288;2022-12-31T15:58:25;6.15;;;1.17;;
32200;SDS011;18701;45.588;5.288;2022-12-31T16:01:02;9.30;;;1.80;;
32200;SDS011;18701;45.588;5.288;2022-12-31T16:03:31;10.57;;;1.30;;
32200;SDS011;18701;45.588;5.288;2022-12-31T16:05:58;4.90;;;1.60;;
32200;SDS011;18701;45.588;5.288;2022-12-31T16:08:28;13.10;;;2.40;;
32200;SDS011;18701;45.588;5.288;2022-12-31T16:10:57;6.30;;;1.50;;
32200;SDS011;18701;45.588;5.288;2022-12-31T16:13:24;10.30;;;1.73;;
32200;SDS011;18701;45.588;5.288;2022-12-31T16:15:52;5.65;;;1.92;;
32200;SDS011;18701;45.588;5.288;2022-12-31T16:18:24;3.72;;;1.02;;
32200;SDS011;18701;45.588;5.288;2022-12-31T16:20:59;6.13;;;1.30;;
32200;SDS011;18701;45.588;5.288;2022-12-31T16:23:25;10.35;;;1.45;;
32200;SDS011;18701;45.588;5.288;2022-12-31T16:25:52;6.65;;;1.73;;
32200;SDS011;18701;45.588;5.288;2022-12-31T16:28:23;7.20;;;1.20;;
32200;SDS011;18701;45.588;5.288;2022-12-31T16:31:04;7.13;;;1.98;;
32200;SDS011;18701;45.588;5.288;2022-12-31T16:33:32;5.70;;;1.50;;
32200;SDS011;18701;45.588;5.288;2022-12-31T16:35:58;6.75;;;1.52;;
32200;SDS011;18701;45.588;5.288;2022-12-31T16:38:35;4.97;;;1.50;;
32200;SDS011;18701;45.588;5.288;2022-12-31T16:43:39;11.52;;;2.20;;
32200;SDS011;18701;45.588;5.288;2022-12-31T16:48:33;5.25;;;1.60;;
32200;SDS011;18701;45.588;5.288;2022-12-31T16:50:58;5.18;;;1.52;;
32200;SDS011;18701;45.588;5.288;2022-12-31T16:53:25;6.97;;;1.50;;
32200;SDS011;18701;45.588;5.288;2022-12-31T16:55:53;5.68;;;1.60;;
32200;SDS011;18701;45.588;5.288;2022-12-31T17:00:53;8.73;;;1.73;;
32200;SDS011;18701;45.588;5.288;2022-12-31T17:03:27;4.88;;;1.48;;
32200;SDS011;18701;45.588;5.288;2022-12-31T17:11:34;6.50;;;2.10;;
32200;SDS011;18701;45.588;5.288;2022-12-31T17:16:34;11.52;;;1.88;;
32200;SDS011;18701;45.588;5.288;2022-12-31T17:19:02;10.15;;;2.08;;
32200;SDS011;18701;45.588;5.288;2022-12-31T17:21:29;7.72;;;2.10;;
32200;SDS011;18701;45.588;5.288;2022-12-31T17:24:04;7.72;;;2.05;;
32200;SDS011;18701;45.588;5.288;2022-12-31T17:26:31;10.13;;;1.80;;
32200;SDS011;18701;45.588;5.288;2022-12-31T17:29:00;8.57;;;1.73;;
32200;SDS011;18701;45.588;5.288;2022-12-31T17:31:35;12.07;;;2.20;;
32200;SDS011;18701;45.588;5.288;2022-12-31T17:36:50;5.82;;;2.00;;
32200;SDS011;18701;45.588;5.288;2022-12-31T17:39:40;8.52;;;2.00;;
32200;SDS011;18701;45.588;5.288;2022-12-31T17:42:09;4.70;;;1.75;;
32200;SDS011;18701;45.588;5.288;2022-12-31T17:44:37;9.70;;;2.13;;
32200;SDS011;18701;45.588;5.288;2022-12-31T17:47:06;9.18;;;2.20;;
32200;SDS011;18701;45.588;5.288;2022-12-31T17:49:35;10.70;;;2.88;;
32200;SDS011;18701;45.588;5.288;2022-12-31T17:52:01;7.13;;;2.25;;
32200;SDS011;18701;45.588;5.288;2022-12-31T17:54:27;8.20;;;2.30;;
32200;SDS011;18701;45.588;5.288;2022-12-31T17:56:53;8.00;;;2.28;;
32200;SDS011;18701;45.588;5.288;2022-12-31T17:59:22;7.38;;;2.03;;
32200;SDS011;18701;45.588;5.288;2022-12-31T18:01:53;9.65;;;2.03;;
32200;SDS011;18701;45.588;5.288;2022-12-31T18:04:21;6.95;;;1.80;;
32200;SDS011;18701;45.588;5.288;2022-12-31T18:06:47;7.22;;;2.08;;
32200;SDS011;18701;45.588;5.288;2022-12-31T18:09:12;6.70;;;1.83;;
32200;SDS011;18701;45.588;5.288;2022-12-31T18:11:40;5.32;;;1.77;;
32200;SDS011;18701;45.588;5.288;2022-12-31T18:14:06;9.05;;;2.08;;
32200;SDS011;18701;45.588;5.288;2022-12-31T18:16:32;7.90;;;2.70;;
32200;SDS011;18701;45.588;5.288;2022-12-31T18:18:58;10.68;;;1.75;;
32200;SDS011;18701;45.588;5.288;2022-12-31T18:21:28;8.48;;;2.88;;
32200;SDS011;18701;45.588;5.288;2022-12-31T18:23:59;6.13;;;1.85;;
32200;SDS011;18701;45.588;5.288;2022-12-31T18:26:26;5.35;;;1.42;;
32200;SDS011;18701;45.588;5.288;2022-12-31T18:28:53;6.35;;;1.27;;
32200;SDS011;18701;45.588;5.288;2022-12-31T18:31:27;6.53;;;1.40;;
32200;SDS011;18701;45.588;5.288;2022-12-31T18:33:54;5.28;;;1.55;;
32200;SDS011;18701;45.588;5.288;2022-12-31T18:36:21;9.13;;;1.45;;
32200;SDS011;18701;45.588;5.288;2022-12-31T18:38:48;4.60;;;1.40;;
32200;SDS011;18701;45.588;5.288;2022-12-31T18:41:21;10.10;;;2.10;;
32200;SDS011;18701;45.588;5.288;2022-12-31T18:43:50;4.38;;;1.20;;
32200;SDS011;18701;45.588;5.288;2022-12-31T18:46:18;5.80;;;1.58;;
32200;SDS011;18701;45.588;5.288;2022-12-31T18:48:46;11.48;;;1.92;;
32200;SDS011;18701;45.588;5.288;2022-12-31T18:51:12;7.18;;;1.63;;
32200;SDS011;18701;45.588;5.288;2022-12-31T18:53:46;5.63;;;1.23;;
32200;SDS011;18701;45.588;5.288;2022-12-31T18:56:13;10.65;;;1.42;;
32200;SDS011;18701;45.588;5.288;2022-12-31T18:58:40;5.50;;;1.40;;
32200;SDS011;18701;45.588;5.288;2022-12-31T19:04:14;8.88;;;2.00;;
32200;SDS011;18701;45.588;5.288;2022-12-31T19:06:43;5.78;;;1.50;;
32200;SDS011;18701;45.588;5.288;2022-12-31T19:09:09;10.43;;;1.65;;
32200;SDS011;18701;45.588;5.288;2022-12-31T19:11:36;5.45;;;1.52;;
32200;SDS011;18701;45.588;5.288;2022-12-31T19:14:05;4.90;;;1.40;;
32200;SDS011;18701;45.588;5.288;2022-12-31T19:16:38;6.35;;;1.10;;
32200;SDS011;18701;45.588;5.288;2022-12-31T19:19:04;3.63;;;1.20;;
32200;SDS011;18701;45.588;5.288;2022-12-31T19:21:29;9.40;;;1.83;;
32200;SDS011;18701;45.588;5.288;2022-12-31T19:23:55;10.32;;;1.83;;
32200;SDS011;18701;45.588;5.288;2022-12-31T19:26:20;6.57;;;1.60;;
32200;SDS011;18701;45.588;5.288;2022-12-31T19:28:47;7.25;;;2.08;;
32200;SDS011;18701;45.588;5.288;2022-12-31T19:31:14;10.52;;;2.25;;
32200;SDS011;18701;45.588;5.288;2022-12-31T19:33:41;4.72;;;1.60;;
32200;SDS011;18701;45.588;5.288;2022-12-31T19:36:13;7.18;;;1.27;;
32200;SDS011;18701;45.588;5.288;2022-12-31T19:38:41;7.18;;;1.38;;
32200;SDS011;18701;45.588;5.288;2022-12-31T19:41:15;8.45;;;2.10;;
32200;SDS011;18701;45.588;5.288;2022-12-31T19:43:43;6.53;;;1.40;;
32200;SDS011;18701;45.588;5.288;2022-12-31T19:46:12;8.57;;;1.70;;
32200;SDS011;18701;45.588;5.288;2022-12-31T19:48:39;2.80;;;1.10;;
32200;SDS011;18701;45.588;5.288;2022-12-31T19:51:15;4.18;;;1.13;;
32200;SDS011;18701;45.588;5.288;2022-12-31T19:53:42;4.47;;;1.42;;
32200;SDS011;18701;45.588;5.288;2022-12-31T19:56:10;7.82;;;1.55;;
32200;SDS011;18701;45.588;5.288;2022-12-31T19:58:37;6.68;;;2.00;;
32200;SDS011;18701;45.588;5.288;2022-12-31T20:01:03;8.88;;;1.75;;
32200;SDS011;18701;45.588;5.288;2022-12-31T20:03:30;8.60;;;1.55;;
32200;SDS011;18701;45.588;5.288;2022-12-31T20:06:06;5.85;;;1.50;;
32200;SDS011;18701;45.588;5.288;2022-12-31T20:08:34;6.13;;;1.20;;
32200;SDS011;18701;45.588;5.288;2022-12-31T20:11:18;7.47;;;1.40;;
32200;SDS011;18701;45.588;5.288;2022-12-31T20:13:46;7.20;;;1.25;;